sensor_id;sensor_type;location;lat;lon;timestamp;noise_LAeq;noise_LA_min;noise_LA_max;noise_LA01;noise_LA95
84579;Laerm;74804;52.100;5.116;2023-12-28T00:00:35;43.69;37.83;53.97;;
84579;Laerm;74804;52.100;5.116;2023-12-28T00:03:06;45.08;37.08;60.19;;
84579;Laerm;74804;52.100;5.116;2023-12-28T00:05:37;43.19;37.51;55.42;;
84579;Laerm;74804;52.100;5.116;2023-12-28T00:08:08;41.73;35.75;51.21;;
84579;Laerm;74804;52.100;5.116;2023-12-28T00:10:40;42.42;36.54;54.44;;
84579;Laerm;74804;52.100;5.116;2023-12-28T00:13:13;43.19;36.13;58.14;;
84579;Laerm;74804;52.100;5.116;2023-12-28T00:15:45;42.36;35.48;53.31;;
84579;Laerm;74804;52.100;5.116;2023-12-28T00:18:16;39.28;35.71;49.93;;
84579;Laerm;74804;52.100;5.116;2023-12-28T00:20:47;38.20;34.47;43.62;;
84579;Laerm;74804;52.100;5.116;2023-12-28T00:23:18;38.95;35.61;49.35;;
84579;Laerm;74804;52.100;5.116;2023-12-28T00:25:50;40.61;35.29;51.36;;
84579;Laerm;74804;52.100;5.116;2023-12-28T00:28:24;42.53;35.89;55.57;;
84579;Laerm;74804;52.100;5.116;2023-12-28T00:30:55;45.10;35.35;57.23;;
84579;Laerm;74804;52.100;5.116;2023-12-28T00:33:26;44.35;36.39;61.03;;
84579;Laerm;74804;52.100;5.116;2023-12-28T00:35:57;43.57;35.71;57.80;;
84579;Laerm;74804;52.100;5.116;2023-12-28T00:38:28;41.54;35.21;51.04;;
84579;Laerm;74804;52.100;5.116;2023-12-28T00:41:00;39.44;35.25;51.52;;
84579;Laerm;74804;52.100;5.116;2023-12-28T00:43:33;38.47;34.67;47.11;;
84579;Laerm;74804;52.100;5.116;2023-12-28T00:46:04;42.28;35.34;55.55;;
84579;Laerm;74804;52.100;5.116;2023-12-28T00:48:36;44.04;35.39;54.83;;
84579;Laerm;74804;52.100;5.116;2023-12-28T00:51:07;41.81;34.34;54.68;;
84579;Laerm;74804;52.100;5.116;2023-12-28T00:53:38;39.94;34.87;46.73;;
84579;Laerm;74804;52.100;5.116;2023-12-28T00:56:09;44.82;35.65;59.06;;
84579;Laerm;74804;52.100;5.116;2023-12-28T00:58:43;43.03;36.24;59.57;;
84579;Laerm;74804;52.100;5.116;2023-12-28T01:01:14;44.11;35.19;56.47;;
84579;Laerm;74804;52.100;5.116;2023-12-28T01:03:46;42.70;35.06;51.89;;
84579;Laerm;74804;52.100;5.116;2023-12-28T01:06:17;42.98;35.81;53.61;;
84579;Laerm;74804;52.100;5.116;2023-12-28T01:08:48;43.30;35.49;55.29;;
84579;Laerm;74804;52.100;5.116;2023-12-28T01:11:19;41.28;36.31;50.12;;
84579;Laerm;74804;52.100;5.116;2023-12-28T01:13:53;42.27;35.97;51.35;;
84579;Laerm;74804;52.100;5.116;2023-12-28T01:16:25;42.36;34.86;58.05;;
84579;Laerm;74804;52.100;5.116;2023-12-28T01:18:56;42.13;36.19;53.10;;
84579;Laerm;74804;52.100;5.116;2023-12-28T01:21:28;39.90;35.12;59.00;;
84579;Laerm;74804;52.100;5.116;2023-12-28T01:23:59;44.19;37.74;59.74;;
84579;Laerm;74804;52.100;5.116;2023-12-28T01:26:30;42.02;36.17;56.09;;
84579;Laerm;74804;52.100;5.116;2023-12-28T01:29:04;42.65;36.23;54.14;;
84579;Laerm;74804;52.100;5.116;2023-12-28T01:31:36;48.13;37.56;58.38;;
84579;Laerm;74804;52.100;5.116;2023-12-28T01:34:07;48.44;38.55;61.58;;
84579;Laerm;74804;52.100;5.116;2023-12-28T01:36:40;43.81;37.83;55.58;;
84579;Laerm;74804;52.100;5.116;2023-12-28T01:39:11;42.90;36.72;58.81;;
84579;Laerm;74804;52.100;5.116;2023-12-28T01:41:43;43.16;36.10;57.99;;
84579;Laerm;74804;52.100;5.116;2023-12-28T01:44:18;43.96;36.97;58.82;;
84579;Laerm;74804;52.100;5.116;2023-12-28T01:46:49;42.61;35.73;53.37;;
84579;Laerm;74804;52.100;5.116;2023-12-28T01:49:20;45.39;35.24;58.91;;
84579;Laerm;74804;52.100;5.116;2023-12-28T01:51:52;44.25;37.07;54.98;;
84579;Laerm;74804;52.100;5.116;2023-12-28T01:54:23;40.86;35.65;53.01;;
84579;Laerm;74804;52.100;5.116;2023-12-28T01:56:54;43.03;36.01;52.59;;
84579;Laerm;74804;52.100;5.116;2023-12-28T01:59:28;41.23;36.32;51.28;;
84579;Laerm;74804;52.100;5.116;2023-12-28T02:01:59;46.13;36.07;58.86;;
84579;Laerm;74804;52.100;5.116;2023-12-28T02:04:30;39.71;35.48;47.94;;
84579;Laerm;74804;52.100;5.116;2023-12-28T02:07:01;42.94;36.77;54.50;;
84579;Laerm;74804;52.100;5.116;2023-12-28T02:09:33;49.26;37.26;64.56;;
84579;Laerm;74804;52.100;5.116;2023-12-28T02:12:04;48.06;37.84;61.09;;
84579;Laerm;74804;52.100;5.116;2023-12-28T02:14:38;49.46;35.88;63.86;;
84579;Laerm;74804;52.100;5.116;2023-12-28T02:17:10;48.62;35.12;66.74;;
84579;Laerm;74804;52.100;5.116;2023-12-28T02:19:44;44.99;36.14;61.19;;
84579;Laerm;74804;52.100;5.116;2023-12-28T02:22:16;45.99;36.18;57.59;;
84579;Laerm;74804;52.100;5.116;2023-12-28T02:25:07;43.25;37.16;55.42;;
84579;Laerm;74804;52.100;5.116;2023-12-28T02:27:40;47.00;36.61;59.29;;
84579;Laerm;74804;52.100;5.116;2023-12-28T02:30:12;44.84;36.90;56.13;;
84579;Laerm;74804;52.100;5.116;2023-12-28T02:32:47;45.35;36.99;59.84;;
84579;Laerm;74804;52.100;5.116;2023-12-28T02:35:22;46.26;37.50;59.73;;
84579;Laerm;74804;52.100;5.116;2023-12-28T02:37:55;45.74;38.12;55.88;;
84579;Laerm;74804;52.100;5.116;2023-12-28T02:40:29;45.44;37.74;58.27;;
84579;Laerm;74804;52.100;5.116;2023-12-28T02:43:02;45.76;36.50;60.60;;
84579;Laerm;74804;52.100;5.116;2023-12-28T02:45:34;49.22;37.82;68.84;;
84579;Laerm;74804;52.100;5.116;2023-12-28T02:48:05;52.79;40.44;70.01;;
84579;Laerm;74804;52.100;5.116;2023-12-28T02:50:37;49.08;40.51;60.19;;
84579;Laerm;74804;52.100;5.116;2023-12-28T02:53:08;47.11;37.57;59.39;;
84579;Laerm;74804;52.100;5.116;2023-12-28T02:55:42;48.63;36.79;58.78;;
84579;Laerm;74804;52.100;5.116;2023-12-28T02:58:13;45.81;37.25;58.67;;
84579;Laerm;74804;52.100;5.116;2023-12-28T03:00:45;48.09;37.69;62.45;;
84579;Laerm;74804;52.100;5.116;2023-12-28T03:03:16;49.06;37.13;63.45;;
84579;Laerm;74804;52.100;5.116;2023-12-28T03:05:47;48.15;36.57;64.24;;
84579;Laerm;74804;52.100;5.116;2023-12-28T03:08:18;50.65;39.45;63.70;;
84579;Laerm;74804;52.100;5.116;2023-12-28T03:10:52;46.75;37.50;57.66;;
84579;Laerm;74804;52.100;5.116;2023-12-28T03:13:23;49.85;37.22;66.17;;
84579;Laerm;74804;52.100;5.116;2023-12-28T03:15:55;45.81;37.36;59.28;;
84579;Laerm;74804;52.100;5.116;2023-12-28T03:18:26;50.00;37.20;62.57;;
84579;Laerm;74804;52.100;5.116;2023-12-28T03:20:57;48.14;37.58;62.20;;
84579;Laerm;74804;52.100;5.116;2023-12-28T03:23:28;43.46;36.95;54.47;;
84579;Laerm;74804;52.100;5.116;2023-12-28T03:26:02;42.03;36.42;54.32;;
84579;Laerm;74804;52.100;5.116;2023-12-28T03:28:34;52.77;38.65;72.05;;
84579;Laerm;74804;52.100;5.116;2023-12-28T03:31:05;45.94;37.78;62.96;;
84579;Laerm;74804;52.100;5.116;2023-12-28T03:33:36;42.24;37.38;50.65;;
84579;Laerm;74804;52.100;5.116;2023-12-28T03:36:07;48.13;38.55;59.71;;
84579;Laerm;74804;52.100;5.116;2023-12-28T03:38:39;48.39;38.22;59.43;;
84579;Laerm;74804;52.100;5.116;2023-12-28T03:41:18;51.16;37.34;66.11;;
84579;Laerm;74804;52.100;5.116;2023-12-28T03:43:49;49.94;37.23;62.20;;
84579;Laerm;74804;52.100;5.116;2023-12-28T03:46:20;45.27;37.32;60.92;;
84579;Laerm;74804;52.100;5.116;2023-12-28T03:48:51;47.32;37.16;60.76;;
84579;Laerm;74804;52.100;5.116;2023-12-28T03:51:22;44.43;37.88;57.51;;
84579;Laerm;74804;52.100;5.116;2023-12-28T03:53:54;51.64;39.43;65.66;;
84579;Laerm;74804;52.100;5.116;2023-12-28T03:56:27;50.67;40.33;64.59;;
84579;Laerm;74804;52.100;5.116;2023-12-28T03:59:00;54.70;40.79;71.44;;
84579;Laerm;74804;52.100;5.116;2023-12-28T04:01:31;45.79;38.40;61.69;;
84579;Laerm;74804;52.100;5.116;2023-12-28T04:04:02;48.22;39.40;60.10;;
84579;Laerm;74804;52.100;5.116;2023-12-28T04:06:34;48.67;39.80;61.75;;
84579;Laerm;74804;52.100;5.116;2023-12-28T04:09:05;49.95;40.18;62.91;;
84579;Laerm;74804;52.100;5.116;2023-12-28T04:11:38;53.98;38.51;72.14;;
84579;Laerm;74804;52.100;5.116;2023-12-28T04:14:10;47.51;39.09;63.91;;
84579;Laerm;74804;52.100;5.116;2023-12-28T04:16:41;48.53;39.99;66.74;;
84579;Laerm;74804;52.100;5.116;2023-12-28T04:19:12;51.70;40.04;67.64;;
84579;Laerm;74804;52.100;5.116;2023-12-28T04:21:43;51.23;40.33;65.97;;
84579;Laerm;74804;52.100;5.116;2023-12-28T04:24:14;47.84;39.67;59.48;;
84579;Laerm;74804;52.100;5.116;2023-12-28T04:26:48;47.88;39.72;58.44;;
84579;Laerm;74804;52.100;5.116;2023-12-28T04:29:19;49.85;39.31;66.14;;
84579;Laerm;74804;52.100;5.116;2023-12-28T04:31:50;54.47;40.33;68.91;;
84579;Laerm;74804;52.100;5.116;2023-12-28T04:34:22;52.28;38.95;63.88;;
84579;Laerm;74804;52.100;5.116;2023-12-28T04:36:53;50.18;40.65;62.15;;
84579;Laerm;74804;52.100;5.116;2023-12-28T04:39:24;50.30;39.26;67.51;;
84579;Laerm;74804;52.100;5.116;2023-12-28T04:41:57;54.45;40.46;70.44;;
84579;Laerm;74804;52.100;5.116;2023-12-28T04:44:29;51.37;39.38;66.16;;
84579;Laerm;74804;52.100;5.116;2023-12-28T04:47:00;52.31;43.11;70.77;;
84579;Laerm;74804;52.100;5.116;2023-12-28T04:49:31;48.14;39.27;61.95;;
84579;Laerm;74804;52.100;5.116;2023-12-28T04:52:02;52.73;39.94;66.89;;
84579;Laerm;74804;52.100;5.116;2023-12-28T04:54:34;50.59;40.16;65.21;;
84579;Laerm;74804;52.100;5.116;2023-12-28T04:57:07;50.13;41.12;65.22;;
84579;Laerm;74804;52.100;5.116;2023-12-28T04:59:38;52.93;41.86;67.56;;
84579;Laerm;74804;52.100;5.116;2023-12-28T05:02:10;53.07;41.06;70.63;;
84579;Laerm;74804;52.100;5.116;2023-12-28T05:04:41;53.58;44.42;66.82;;
84579;Laerm;74804;52.100;5.116;2023-12-28T05:07:12;52.62;40.10;68.20;;
84579;Laerm;74804;52.100;5.116;2023-12-28T05:09:43;51.93;41.08;67.59;;
84579;Laerm;74804;52.100;5.116;2023-12-28T05:12:17;46.18;39.61;56.74;;
84579;Laerm;74804;52.100;5.116;2023-12-28T05:14:48;50.89;41.13;68.14;;
84579;Laerm;74804;52.100;5.116;2023-12-28T05:17:19;49.09;40.95;59.27;;
84579;Laerm;74804;52.100;5.116;2023-12-28T05:19:50;54.72;41.72;70.53;;
84579;Laerm;74804;52.100;5.116;2023-12-28T05:22:23;47.81;41.41;58.41;;
84579;Laerm;74804;52.100;5.116;2023-12-28T05:24:54;51.70;43.39;65.92;;
84579;Laerm;74804;52.100;5.116;2023-12-28T05:27:28;47.61;40.42;60.53;;
84579;Laerm;74804;52.100;5.116;2023-12-28T05:29:59;49.99;41.51;62.31;;
84579;Laerm;74804;52.100;5.116;2023-12-28T05:32:30;47.26;40.52;61.82;;
84579;Laerm;74804;52.100;5.116;2023-12-28T05:35:02;51.73;43.24;66.27;;
84579;Laerm;74804;52.100;5.116;2023-12-28T05:37:33;48.67;41.48;58.98;;
84579;Laerm;74804;52.100;5.116;2023-12-28T05:40:05;49.17;41.16;67.47;;
84579;Laerm;74804;52.100;5.116;2023-12-28T05:42:39;51.94;42.72;68.60;;
84579;Laerm;74804;52.100;5.116;2023-12-28T05:45:11;53.97;42.69;68.00;;
84579;Laerm;74804;52.100;5.116;2023-12-28T05:47:42;49.76;41.97;67.55;;
84579;Laerm;74804;52.100;5.116;2023-12-28T05:50:13;51.92;41.76;64.56;;
84579;Laerm;74804;52.100;5.116;2023-12-28T05:52:44;50.68;42.75;64.38;;
84579;Laerm;74804;52.100;5.116;2023-12-28T05:55:15;48.60;41.64;59.37;;
84579;Laerm;74804;52.100;5.116;2023-12-28T05:57:49;50.01;42.67;67.49;;
84579;Laerm;74804;52.100;5.116;2023-12-28T06:00:20;48.13;41.85;60.79;;
84579;Laerm;74804;52.100;5.116;2023-12-28T06:02:52;53.83;42.25;72.56;;
84579;Laerm;74804;52.100;5.116;2023-12-28T06:05:23;52.08;41.51;66.22;;
84579;Laerm;74804;52.100;5.116;2023-12-28T06:07:54;50.75;42.19;63.56;;
84579;Laerm;74804;52.100;5.116;2023-12-28T06:10:25;48.63;40.31;64.85;;
84579;Laerm;74804;52.100;5.116;2023-12-28T06:12:59;52.88;41.60;67.63;;
84579;Laerm;74804;52.100;5.116;2023-12-28T06:15:30;51.88;41.49;66.17;;
84579;Laerm;74804;52.100;5.116;2023-12-28T06:18:01;51.30;42.59;64.67;;
84579;Laerm;74804;52.100;5.116;2023-12-28T06:20:32;48.49;41.85;61.31;;
84579;Laerm;74804;52.100;5.116;2023-12-28T06:23:03;48.81;41.66;64.35;;
84579;Laerm;74804;52.100;5.116;2023-12-28T06:25:35;50.47;42.71;66.06;;
84579;Laerm;74804;52.100;5.116;2023-12-28T06:28:09;49.36;41.12;68.19;;
84579;Laerm;74804;52.100;5.116;2023-12-28T06:30:40;49.94;42.69;62.02;;
84579;Laerm;74804;52.100;5.116;2023-12-28T06:33:11;51.75;42.69;68.19;;
84579;Laerm;74804;52.100;5.116;2023-12-28T06:35:43;49.23;42.50;65.47;;
84579;Laerm;74804;52.100;5.116;2023-12-28T06:38:14;49.97;41.82;62.60;;
84579;Laerm;74804;52.100;5.116;2023-12-28T06:40:46;50.53;43.66;62.52;;
84579;Laerm;74804;52.100;5.116;2023-12-28T06:43:19;51.16;42.16;62.12;;
84579;Laerm;74804;52.100;5.116;2023-12-28T06:45:50;56.17;50.65;68.97;;
84579;Laerm;74804;52.100;5.116;2023-12-28T06:48:22;57.33;50.91;73.22;;
84579;Laerm;74804;52.100;5.116;2023-12-28T06:50:54;51.76;43.04;62.53;;
84579;Laerm;74804;52.100;5.116;2023-12-28T06:53:26;50.94;42.34;69.35;;
84579;Laerm;74804;52.100;5.116;2023-12-28T06:55:57;50.73;43.14;63.90;;
84579;Laerm;74804;52.100;5.116;2023-12-28T06:58:31;48.40;43.19;59.67;;
84579;Laerm;74804;52.100;5.116;2023-12-28T07:01:02;51.05;42.94;64.52;;
84579;Laerm;74804;52.100;5.116;2023-12-28T07:03:33;54.79;43.53;65.67;;
84579;Laerm;74804;52.100;5.116;2023-12-28T07:06:05;51.59;42.49;63.59;;
84579;Laerm;74804;52.100;5.116;2023-12-28T07:08:36;52.91;43.90;67.43;;
84579;Laerm;74804;52.100;5.116;2023-12-28T07:11:09;51.29;42.63;63.24;;
84579;Laerm;74804;52.100;5.116;2023-12-28T07:13:43;54.36;44.21;69.79;;
84579;Laerm;74804;52.100;5.116;2023-12-28T07:16:14;51.92;43.68;69.10;;
84579;Laerm;74804;52.100;5.116;2023-12-28T07:18:45;53.74;43.48;71.15;;
84579;Laerm;74804;52.100;5.116;2023-12-28T07:21:16;50.30;43.09;62.84;;
84579;Laerm;74804;52.100;5.116;2023-12-28T07:23:47;53.18;43.87;67.38;;
84579;Laerm;74804;52.100;5.116;2023-12-28T07:26:19;49.88;43.17;58.86;;
84579;Laerm;74804;52.100;5.116;2023-12-28T07:28:53;47.82;42.89;57.04;;
84579;Laerm;74804;52.100;5.116;2023-12-28T07:31:24;48.44;42.55;59.62;;
84579;Laerm;74804;52.100;5.116;2023-12-28T07:33:55;51.06;44.38;62.17;;
84579;Laerm;74804;52.100;5.116;2023-12-28T07:36:26;53.41;43.35;71.07;;
84579;Laerm;74804;52.100;5.116;2023-12-28T07:38:57;51.67;42.72;64.14;;
84579;Laerm;74804;52.100;5.116;2023-12-28T07:41:29;53.25;43.85;68.33;;
84579;Laerm;74804;52.100;5.116;2023-12-28T07:44:02;49.30;42.97;64.53;;
84579;Laerm;74804;52.100;5.116;2023-12-28T07:46:33;48.71;42.32;62.44;;
84579;Laerm;74804;52.100;5.116;2023-12-28T07:49:05;46.10;42.39;54.93;;
84579;Laerm;74804;52.100;5.116;2023-12-28T07:51:36;46.00;42.62;51.56;;
84579;Laerm;74804;52.100;5.116;2023-12-28T07:54:07;48.78;42.47;68.67;;
84579;Laerm;74804;52.100;5.116;2023-12-28T07:56:38;51.47;43.48;65.69;;
84579;Laerm;74804;52.100;5.116;2023-12-28T07:59:12;53.38;44.22;71.14;;
84579;Laerm;74804;52.100;5.116;2023-12-28T08:01:43;50.17;41.96;63.77;;
84579;Laerm;74804;52.100;5.116;2023-12-28T08:04:14;48.21;42.15;64.07;;
84579;Laerm;74804;52.100;5.116;2023-12-28T08:06:45;53.19;42.87;68.42;;
84579;Laerm;74804;52.100;5.116;2023-12-28T08:09:16;51.19;43.54;64.02;;
84579;Laerm;74804;52.100;5.116;2023-12-28T08:11:47;49.35;43.68;60.00;;
84579;Laerm;74804;52.100;5.116;2023-12-28T08:14:21;47.93;41.59;62.16;;
84579;Laerm;74804;52.100;5.116;2023-12-28T08:16:52;48.15;42.92;61.77;;
84579;Laerm;74804;52.100;5.116;2023-12-28T08:19:23;50.24;43.48;65.32;;
84579;Laerm;74804;52.100;5.116;2023-12-28T08:21:54;52.09;42.74;66.13;;
84579;Laerm;74804;52.100;5.116;2023-12-28T08:24:25;54.22;44.89;68.85;;
84579;Laerm;74804;52.100;5.116;2023-12-28T08:26:57;53.67;46.28;70.60;;
84579;Laerm;74804;52.100;5.116;2023-12-28T08:29:30;52.91;41.84;69.88;;
84579;Laerm;74804;52.100;5.116;2023-12-28T08:32:02;46.51;42.86;59.72;;
84579;Laerm;74804;52.100;5.116;2023-12-28T08:34:34;48.62;43.00;59.72;;
84579;Laerm;74804;52.100;5.116;2023-12-28T08:37:05;49.11;41.96;66.94;;
84579;Laerm;74804;52.100;5.116;2023-12-28T08:39:36;47.16;43.01;60.24;;
84579;Laerm;74804;52.100;5.116;2023-12-28T08:42:07;48.55;41.37;64.05;;
84579;Laerm;74804;52.100;5.116;2023-12-28T08:44:41;47.13;42.44;59.22;;
84579;Laerm;74804;52.100;5.116;2023-12-28T08:47:12;51.00;42.84;70.59;;
84579;Laerm;74804;52.100;5.116;2023-12-28T08:49:43;50.22;43.52;65.70;;
84579;Laerm;74804;52.100;5.116;2023-12-28T08:52:14;49.42;43.65;65.31;;
84579;Laerm;74804;52.100;5.116;2023-12-28T08:54:46;48.44;43.71;61.29;;
84579;Laerm;74804;52.100;5.116;2023-12-28T08:57:17;49.43;44.05;62.24;;
84579;Laerm;74804;52.100;5.116;2023-12-28T08:59:51;49.70;42.21;67.02;;
84579;Laerm;74804;52.100;5.116;2023-12-28T09:02:22;53.23;43.56;65.99;;
84579;Laerm;74804;52.100;5.116;2023-12-28T09:04:53;50.06;42.19;63.49;;
84579;Laerm;74804;52.100;5.116;2023-12-28T09:07:24;53.09;43.55;64.02;;
84579;Laerm;74804;52.100;5.116;2023-12-28T09:09:55;54.46;42.76;69.28;;
84579;Laerm;74804;52.100;5.116;2023-12-28T09:12:26;51.77;43.39;64.56;;
84579;Laerm;74804;52.100;5.116;2023-12-28T09:15:00;49.28;42.73;66.35;;
84579;Laerm;74804;52.100;5.116;2023-12-28T09:17:32;48.48;43.64;67.91;;
84579;Laerm;74804;52.100;5.116;2023-12-28T09:20:04;52.12;42.95;69.48;;
84579;Laerm;74804;52.100;5.116;2023-12-28T09:22:36;50.63;44.04;65.21;;
84579;Laerm;74804;52.100;5.116;2023-12-28T09:25:07;53.41;45.73;69.01;;
84579;Laerm;74804;52.100;5.116;2023-12-28T09:27:38;53.11;44.23;65.93;;
84579;Laerm;74804;52.100;5.116;2023-12-28T09:30:13;53.87;45.10;69.48;;
84579;Laerm;74804;52.100;5.116;2023-12-28T09:32:44;51.31;43.61;66.60;;
84579;Laerm;74804;52.100;5.116;2023-12-28T09:35:15;52.36;43.64;63.05;;
84579;Laerm;74804;52.100;5.116;2023-12-28T09:37:46;50.79;42.97;69.64;;
84579;Laerm;74804;52.100;5.116;2023-12-28T09:40:17;50.57;43.55;63.38;;
84579;Laerm;74804;52.100;5.116;2023-12-28T09:42:51;49.50;42.64;65.51;;
84579;Laerm;74804;52.100;5.116;2023-12-28T09:45:27;52.21;43.40;72.02;;
84579;Laerm;74804;52.100;5.116;2023-12-28T09:47:58;46.22;42.11;60.08;;
84579;Laerm;74804;52.100;5.116;2023-12-28T09:50:30;50.86;44.29;65.02;;
84579;Laerm;74804;52.100;5.116;2023-12-28T09:53:01;48.84;41.91;61.25;;
84579;Laerm;74804;52.100;5.116;2023-12-28T09:55:33;52.87;44.39;66.03;;
84579;Laerm;74804;52.100;5.116;2023-12-28T09:58:04;49.54;43.29;69.66;;
84579;Laerm;74804;52.100;5.116;2023-12-28T10:00:39;55.52;45.34;70.40;;
84579;Laerm;74804;52.100;5.116;2023-12-28T10:03:10;56.79;45.33;75.26;;
84579;Laerm;74804;52.100;5.116;2023-12-28T10:05:42;48.06;43.96;63.55;;
84579;Laerm;74804;52.100;5.116;2023-12-28T10:08:13;47.48;43.19;55.72;;
84579;Laerm;74804;52.100;5.116;2023-12-28T10:10:44;50.80;43.83;63.69;;
84579;Laerm;74804;52.100;5.116;2023-12-28T10:13:18;52.32;45.26;62.79;;
84579;Laerm;74804;52.100;5.116;2023-12-28T10:15:52;50.73;43.21;62.01;;
84579;Laerm;74804;52.100;5.116;2023-12-28T10:18:23;53.18;43.98;67.28;;
84579;Laerm;74804;52.100;5.116;2023-12-28T10:20:54;55.52;44.31;69.84;;
84579;Laerm;74804;52.100;5.116;2023-12-28T10:23:26;50.47;44.46;60.84;;
84579;Laerm;74804;52.100;5.116;2023-12-28T10:25:57;50.43;44.37;61.73;;
84579;Laerm;74804;52.100;5.116;2023-12-28T10:28:30;53.85;42.97;73.42;;
84579;Laerm;74804;52.100;5.116;2023-12-28T10:31:04;51.22;43.24;66.88;;
84579;Laerm;74804;52.100;5.116;2023-12-28T10:33:36;47.83;43.15;57.05;;
84579;Laerm;74804;52.100;5.116;2023-12-28T10:36:07;49.59;44.06;60.85;;
84579;Laerm;74804;52.100;5.116;2023-12-28T10:38:39;49.94;43.80;65.83;;
84579;Laerm;74804;52.100;5.116;2023-12-28T10:41:11;50.46;43.22;59.52;;
84579;Laerm;74804;52.100;5.116;2023-12-28T10:43:45;65.59;43.14;81.42;;
84579;Laerm;74804;52.100;5.116;2023-12-28T10:46:21;53.68;44.19;68.60;;
84579;Laerm;74804;52.100;5.116;2023-12-28T10:48:57;60.78;43.32;79.73;;
84579;Laerm;74804;52.100;5.116;2023-12-28T10:51:29;49.23;44.21;59.94;;
84579;Laerm;74804;52.100;5.116;2023-12-28T10:54:05;50.56;43.59;62.93;;
84579;Laerm;74804;52.100;5.116;2023-12-28T10:56:41;50.72;43.43;63.97;;
84579;Laerm;74804;52.100;5.116;2023-12-28T10:59:14;47.69;42.47;59.59;;
84579;Laerm;74804;52.100;5.116;2023-12-28T11:01:51;50.79;44.10;62.03;;
84579;Laerm;74804;52.100;5.116;2023-12-28T11:04:23;51.50;44.12;64.64;;
84579;Laerm;74804;52.100;5.116;2023-12-28T11:06:54;47.26;43.00;55.26;;
84579;Laerm;74804;52.100;5.116;2023-12-28T11:09:27;51.03;43.00;68.65;;
84579;Laerm;74804;52.100;5.116;2023-12-28T11:12:01;50.43;43.13;66.15;;
84579;Laerm;74804;52.100;5.116;2023-12-28T11:14:33;49.30;43.19;65.06;;
84579;Laerm;74804;52.100;5.116;2023-12-28T11:17:07;53.01;45.37;71.95;;
84579;Laerm;74804;52.100;5.116;2023-12-28T11:19:42;50.32;43.25;66.40;;
84579;Laerm;74804;52.100;5.116;2023-12-28T11:22:14;53.57;43.48;71.46;;
84579;Laerm;74804;52.100;5.116;2023-12-28T11:24:46;54.17;43.63;76.61;;
84579;Laerm;74804;52.100;5.116;2023-12-28T11:27:17;49.17;44.90;58.78;;
84579;Laerm;74804;52.100;5.116;2023-12-28T11:29:48;55.74;43.57;69.50;;
84579;Laerm;74804;52.100;5.116;2023-12-28T11:32:22;58.15;44.80;74.03;;
84579;Laerm;74804;52.100;5.116;2023-12-28T11:34:56;51.77;45.88;63.98;;
84579;Laerm;74804;52.100;5.116;2023-12-28T11:37:29;48.96;43.55;63.01;;
84579;Laerm;74804;52.100;5.116;2023-12-28T11:40:09;50.52;44.62;63.12;;
84579;Laerm;74804;52.100;5.116;2023-12-28T11:42:47;52.86;42.69;65.85;;
84579;Laerm;74804;52.100;5.116;2023-12-28T11:45:19;54.35;46.56;68.08;;
84579;Laerm;74804;52.100;5.116;2023-12-28T11:48:03;50.80;44.55;60.78;;
84579;Laerm;74804;52.100;5.116;2023-12-28T11:50:35;49.81;43.62;63.24;;
84579;Laerm;74804;52.100;5.116;2023-12-28T11:53:07;52.71;42.80;65.31;;
84579;Laerm;74804;52.100;5.116;2023-12-28T11:55:38;52.67;44.11;67.84;;
84579;Laerm;74804;52.100;5.116;2023-12-28T11:58:09;54.19;43.96;68.04;;
84579;Laerm;74804;52.100;5.116;2023-12-28T12:00:40;53.26;44.09;65.87;;
84579;Laerm;74804;52.100;5.116;2023-12-28T12:03:14;51.00;43.53;65.59;;
84579;Laerm;74804;52.100;5.116;2023-12-28T12:05:50;50.90;44.01;60.75;;
84579;Laerm;74804;52.100;5.116;2023-12-28T12:08:21;56.72;43.16;77.83;;
84579;Laerm;74804;52.100;5.116;2023-12-28T12:10:59;53.43;44.76;66.19;;
84579;Laerm;74804;52.100;5.116;2023-12-28T12:13:31;54.95;44.47;74.38;;
84579;Laerm;74804;52.100;5.116;2023-12-28T12:16:03;50.56;42.76;60.34;;
84579;Laerm;74804;52.100;5.116;2023-12-28T12:18:37;48.49;43.41;65.29;;
84579;Laerm;74804;52.100;5.116;2023-12-28T12:21:09;49.16;44.67;59.97;;
84579;Laerm;74804;52.100;5.116;2023-12-28T12:23:40;52.01;42.97;74.98;;
84579;Laerm;74804;52.100;5.116;2023-12-28T12:26:11;53.75;43.27;67.71;;
84579;Laerm;74804;52.100;5.116;2023-12-28T12:28:42;54.39;43.00;77.21;;
84579;Laerm;74804;52.100;5.116;2023-12-28T12:31:14;56.83;44.09;74.71;;
84579;Laerm;74804;52.100;5.116;2023-12-28T12:33:48;52.89;42.92;72.17;;
84579;Laerm;74804;52.100;5.116;2023-12-28T12:36:19;52.32;44.20;74.09;;
84579;Laerm;74804;52.100;5.116;2023-12-28T12:38:51;55.37;44.54;76.02;;
84579;Laerm;74804;52.100;5.116;2023-12-28T12:41:22;57.25;44.25;80.36;;
84579;Laerm;74804;52.100;5.116;2023-12-28T12:43:54;49.80;42.19;63.01;;
84579;Laerm;74804;52.100;5.116;2023-12-28T12:46:27;52.92;44.47;69.70;;
84579;Laerm;74804;52.100;5.116;2023-12-28T12:49:01;53.66;43.76;70.47;;
84579;Laerm;74804;52.100;5.116;2023-12-28T12:51:32;50.79;42.56;67.33;;
84579;Laerm;74804;52.100;5.116;2023-12-28T12:54:03;48.93;43.32;60.89;;
84579;Laerm;74804;52.100;5.116;2023-12-28T12:56:36;54.73;43.64;71.78;;
84579;Laerm;74804;52.100;5.116;2023-12-28T12:59:14;50.58;43.44;65.68;;
84579;Laerm;74804;52.100;5.116;2023-12-28T13:01:46;53.36;44.10;67.96;;
84579;Laerm;74804;52.100;5.116;2023-12-28T13:04:22;52.08;43.96;64.75;;
84579;Laerm;74804;52.100;5.116;2023-12-28T13:06:54;52.06;44.44;68.53;;
84579;Laerm;74804;52.100;5.116;2023-12-28T13:09:25;52.51;44.88;65.27;;
84579;Laerm;74804;52.100;5.116;2023-12-28T13:11:56;50.03;43.23;61.19;;
84579;Laerm;74804;52.100;5.116;2023-12-28T13:14:27;50.79;44.37;66.67;;
84579;Laerm;74804;52.100;5.116;2023-12-28T13:16:58;51.07;45.51;61.26;;
84579;Laerm;74804;52.100;5.116;2023-12-28T13:19:32;55.02;46.25;70.28;;
84579;Laerm;74804;52.100;5.116;2023-12-28T13:22:03;49.32;44.16;57.39;;
84579;Laerm;74804;52.100;5.116;2023-12-28T13:24:35;54.13;45.43;64.73;;
84579;Laerm;74804;52.100;5.116;2023-12-28T13:27:06;52.48;44.42;64.17;;
84579;Laerm;74804;52.100;5.116;2023-12-28T13:29:38;50.35;45.06;61.16;;
84579;Laerm;74804;52.100;5.116;2023-12-28T13:32:09;51.14;44.09;65.54;;
84579;Laerm;74804;52.100;5.116;2023-12-28T13:34:43;51.72;44.56;67.82;;
84579;Laerm;74804;52.100;5.116;2023-12-28T13:37:14;50.69;43.53;66.96;;
84579;Laerm;74804;52.100;5.116;2023-12-28T13:39:45;50.35;43.51;62.22;;
84579;Laerm;74804;52.100;5.116;2023-12-28T13:42:17;48.84;44.38;58.62;;
84579;Laerm;74804;52.100;5.116;2023-12-28T13:44:48;49.97;43.38;61.83;;
84579;Laerm;74804;52.100;5.116;2023-12-28T13:47:19;48.38;43.45;58.32;;
84579;Laerm;74804;52.100;5.116;2023-12-28T13:49:53;46.40;43.59;58.84;;
84579;Laerm;74804;52.100;5.116;2023-12-28T13:52:25;49.05;42.64;61.96;;
84579;Laerm;74804;52.100;5.116;2023-12-28T13:54:56;47.90;43.24;56.17;;
84579;Laerm;74804;52.100;5.116;2023-12-28T13:57:27;47.03;42.53;59.51;;
84579;Laerm;74804;52.100;5.116;2023-12-28T13:59:59;47.30;43.33;68.38;;
84579;Laerm;74804;52.100;5.116;2023-12-28T14:02:30;50.25;43.40;65.10;;
84579;Laerm;74804;52.100;5.116;2023-12-28T14:05:04;51.27;42.87;69.11;;
84579;Laerm;74804;52.100;5.116;2023-12-28T14:07:36;48.75;43.71;60.08;;
84579;Laerm;74804;52.100;5.116;2023-12-28T14:10:07;49.59;44.14;63.57;;